Time;durP1;ratioP1;P1;durP2;ratioP2;P2;SDS_P1;SDS_P2;PMS_P1;PMS_P2;Temp;Humidity;BMP_temperature;BMP_pressure;BME280_temperature;BME280_humidity;BME280_pressure;Samples;Min_cycle;Max_cycle;Signal;HPM_P1;HPM_P2
2024/01/23 00:01:26;;;;;;;10.82;3.78;;;8.40;99.60;;;;;;6240964;23;20008;-75
2024/01/23 00:04:12;;;;;;;8.70;3.22;;;8.40;99.70;;;;;;6240333;23;20089;-74
2024/01/23 00:06:58;;;;;;;7.22;3.17;;;8.40;99.70;;;;;;6241303;23;20000;-74
2024/01/23 00:09:43;;;;;;;5.80;3.03;;;8.40;99.70;;;;;;6241083;23;20004;-74
2024/01/23 00:12:29;;;;;;;7.03;3.10;;;8.40;99.70;;;;;;6240949;23;20128;-74
2024/01/23 00:15:16;;;;;;;7.00;3.40;;;8.40;99.70;;;;;;6239953;23;20016;-75
2024/01/23 00:18:02;;;;;;;6.88;2.78;;;8.50;99.70;;;;;;6240675;23;20008;-74
2024/01/23 00:20:48;;;;;;;7.28;2.30;;;8.50;99.70;;;;;;6239840;23;20091;-73
2024/01/23 00:23:34;;;;;;;3.95;2.20;;;8.50;99.70;;;;;;6240498;23;20091;-74
2024/01/23 00:26:20;;;;;;;5.03;2.33;;;8.60;99.70;;;;;;6240812;23;20352;-73
2024/01/23 00:29:07;;;;;;;9.55;3.45;;;8.60;99.70;;;;;;6241081;23;20027;-74
2024/01/23 00:31:53;;;;;;;6.43;2.47;;;8.60;99.70;;;;;;6239497;23;20400;-73
2024/01/23 00:34:40;;;;;;;6.13;2.75;;;8.60;99.60;;;;;;6239831;23;20028;-74
2024/01/23 00:37:26;;;;;;;5.75;2.28;;;8.60;99.60;;;;;;6240476;23;20000;-74
2024/01/23 00:40:12;;;;;;;6.80;2.90;;;8.60;99.60;;;;;;6239827;23;20447;-74
2024/01/23 00:42:58;;;;;;;5.38;2.13;;;8.60;99.60;;;;;;6239538;23;20444;-74
2024/01/23 00:45:44;;;;;;;5.00;2.03;;;8.60;99.60;;;;;;6240328;23;20433;-74
2024/01/23 00:48:30;;;;;;;6.65;2.53;;;8.70;99.50;;;;;;6242292;23;20004;-75
2024/01/23 00:51:15;;;;;;;7.43;2.33;;;8.70;99.50;;;;;;6240298;23;20020;-75
2024/01/23 00:54:02;;;;;;;7.40;3.00;;;8.70;99.50;;;;;;6241763;23;20088;-73
2024/01/23 00:56:48;;;;;;;5.93;2.08;;;8.70;99.50;;;;;;6242555;23;20046;-75
2024/01/23 00:59:34;;;;;;;4.97;1.90;;;8.70;99.70;;;;;;6242474;23;20512;-75
2024/01/23 01:02:20;;;;;;;5.13;2.15;;;8.70;99.50;;;;;;6241782;23;20074;-74
2024/01/23 01:05:07;;;;;;;6.68;2.50;;;8.60;99.50;;;;;;6241118;23;20468;-74
2024/01/23 01:07:54;;;;;;;4.63;1.88;;;8.60;99.50;;;;;;6243834;23;20468;-75
2024/01/23 01:10:40;;;;;;;5.90;2.30;;;8.60;99.70;;;;;;6241051;23;20008;-74
2024/01/23 01:13:26;;;;;;;6.30;2.10;;;8.60;99.60;;;;;;6242334;23;20040;-75
2024/01/23 01:16:12;;;;;;;5.60;2.00;;;8.60;99.60;;;;;;6243760;23;20016;-74
2024/01/23 01:18:58;;;;;;;7.15;2.65;;;8.60;99.70;;;;;;6244143;23;20004;-79
2024/01/23 01:21:44;;;;;;;6.07;2.45;;;8.60;99.90;;;;;;6242037;23;20043;-78
2024/01/23 01:24:30;;;;;;;3.17;1.90;;;8.60;99.90;;;;;;6241077;23;20452;-79
2024/01/23 01:27:16;;;;;;;2.88;1.73;;;8.60;99.90;;;;;;6221720;23;20012;-67
2024/01/23 01:30:04;;;;;;;3.72;2.05;;;8.60;99.90;;;;;;6243720;23;20091;-67
2024/01/23 01:32:50;;;;;;;3.22;1.63;;;8.60;99.90;;;;;;6243935;23;20012;-67
2024/01/23 01:35:36;;;;;;;5.30;2.03;;;8.60;99.90;;;;;;6242386;23;20085;-67
2024/01/23 01:38:22;;;;;;;3.33;1.52;;;8.60;99.90;;;;;;6243249;23;20051;-67
2024/01/23 01:41:08;;;;;;;5.30;1.90;;;8.60;99.90;;;;;;6231006;23;20004;-67
2024/01/23 01:43:54;;;;;;;6.00;2.20;;;8.60;99.90;;;;;;6244385;23;20012;-67
2024/01/23 01:46:43;;;;;;;3.60;2.17;;;8.60;99.90;;;;;;6250277;23;20421;-67
2024/01/23 01:49:29;;;;;;;3.88;1.70;;;8.60;99.90;;;;;;6261022;22;20022;-67
2024/01/23 01:52:16;;;;;;;6.00;1.88;;;8.50;99.90;;;;;;6241744;23;20008;-67
2024/01/23 01:55:02;;;;;;;3.78;1.70;;;8.50;99.90;;;;;;6240782;23;20026;-67
2024/01/23 01:57:48;;;;;;;6.35;1.92;;;8.50;99.90;;;;;;6240692;23;20008;-66
2024/01/23 02:00:34;;;;;;;4.28;1.77;;;8.50;99.90;;;;;;6241424;23;20019;-66
2024/01/23 02:03:21;;;;;;;3.00;1.80;;;8.50;99.90;;;;;;6240901;23;20342;-66
2024/01/23 02:06:08;;;;;;;3.78;1.60;;;8.40;99.90;;;;;;6241774;23;20091;-66
2024/01/23 02:08:57;;;;;;;3.90;1.67;;;8.40;99.90;;;;;;6242298;23;20077;-66
2024/01/23 02:12:00;;;;;;;3.05;1.55;;;8.40;99.90;;;;;;6240334;23;20536;-66
2024/01/23 02:14:46;;;;;;;4.03;1.60;;;8.40;99.90;;;;;;6242256;23;20016;-66
2024/01/23 02:17:32;;;;;;;5.43;1.70;;;8.40;99.90;;;;;;6240415;23;20008;-66
2024/01/23 02:20:18;;;;;;;3.17;1.70;;;8.30;99.90;;;;;;6242170;23;20062;-66
2024/01/23 02:23:04;;;;;;;7.03;2.42;;;8.40;99.90;;;;;;6243013;23;20004;-66
2024/01/23 02:25:49;;;;;;;9.02;2.33;;;8.30;99.90;;;;;;6241172;23;20044;-66
2024/01/23 02:28:35;;;;;;;4.82;2.42;;;8.30;99.90;;;;;;6240098;23;20380;-66
2024/01/23 02:31:21;;;;;;;5.80;2.10;;;8.30;99.90;;;;;;6242056;23;20043;-67
2024/01/23 02:34:07;;;;;;;5.10;1.90;;;8.20;99.90;;;;;;6242661;23;20348;-66
2024/01/23 02:36:53;;;;;;;8.75;2.40;;;8.20;99.90;;;;;;6240731;23;20008;-66
2024/01/23 02:39:39;;;;;;;6.65;2.33;;;8.20;99.90;;;;;;6240895;23;20040;-66
2024/01/23 02:42:25;;;;;;;5.60;2.35;;;8.10;99.90;;;;;;6241165;23;20107;-66
2024/01/23 02:45:11;;;;;;;5.45;2.30;;;8.10;99.90;;;;;;6241464;23;20039;-66
2024/01/23 02:47:57;;;;;;;6.53;2.47;;;8.10;99.90;;;;;;6237286;23;20043;-66
2024/01/23 02:50:43;;;;;;;4.00;1.83;;;8.10;99.90;;;;;;6242088;23;20035;-67
2024/01/23 02:53:29;;;;;;;6.72;2.65;;;8.10;99.90;;;;;;6243013;23;20006;-66
2024/01/23 02:56:15;;;;;;;3.28;1.70;;;8.10;99.90;;;;;;6243032;23;20364;-66
2024/01/23 02:59:00;;;;;;;5.32;2.10;;;8.00;99.90;;;;;;6240817;23;20332;-66
2024/01/23 03:01:46;;;;;;;4.40;1.98;;;8.00;99.90;;;;;;6240936;23;20414;-66
2024/01/23 03:04:32;;;;;;;4.47;1.75;;;8.00;99.90;;;;;;6240944;23;20011;-66
2024/01/23 03:07:18;;;;;;;4.75;2.10;;;8.00;99.90;;;;;;6239932;23;20008;-66
2024/01/23 03:10:07;;;;;;;5.00;1.88;;;8.00;99.90;;;;;;6241992;23;20005;-67
2024/01/23 03:12:52;;;;;;;4.82;2.05;;;8.00;99.90;;;;;;6240717;23;20008;-67
2024/01/23 03:15:38;;;;;;;6.55;2.35;;;8.00;99.90;;;;;;6240577;23;20043;-67
2024/01/23 03:18:24;;;;;;;4.15;1.80;;;8.00;99.90;;;;;;6241872;23;20488;-67
2024/01/23 03:21:10;;;;;;;3.58;1.63;;;8.00;99.90;;;;;;6240181;23;20019;-67
2024/01/23 03:23:58;;;;;;;6.57;2.05;;;8.00;99.90;;;;;;6239817;23;20097;-67
2024/01/23 03:26:43;;;;;;;4.40;1.70;;;8.00;99.90;;;;;;6240829;23;20506;-67
2024/01/23 03:29:30;;;;;;;5.03;2.00;;;8.00;99.90;;;;;;6239444;23;20511;-67
2024/01/23 03:32:16;;;;;;;4.70;1.98;;;8.00;99.90;;;;;;6220172;23;20012;-67
2024/01/23 03:35:03;;;;;;;4.88;1.85;;;8.00;99.90;;;;;;6240646;23;20031;-67
2024/01/23 03:37:49;;;;;;;10.90;2.40;;;8.00;99.90;;;;;;6241590;23;20060;-66
2024/01/23 03:40:34;;;;;;;3.88;1.83;;;8.00;99.90;;;;;;6240016;23;20012;-65
2024/01/23 03:43:22;;;;;;;5.10;2.72;;;8.00;99.90;;;;;;6241562;23;20087;-66
2024/01/23 03:46:07;;;;;;;6.40;2.60;;;8.00;99.90;;;;;;6240508;23;20036;-65
2024/01/23 03:48:53;;;;;;;5.22;1.50;;;8.00;99.90;;;;;;6241048;23;20495;-65
2024/01/23 03:51:39;;;;;;;5.72;1.50;;;8.00;99.90;;;;;;6239162;23;20150;-66
2024/01/23 03:54:25;;;;;;;4.63;2.35;;;8.00;99.90;;;;;;6240265;23;20020;-66
2024/01/23 03:57:11;;;;;;;5.35;2.28;;;8.00;99.90;;;;;;6240412;23;20008;-69
2024/01/23 03:59:57;;;;;;;4.97;1.92;;;8.00;99.90;;;;;;6239514;23;20047;-68
2024/01/23 04:02:43;;;;;;;6.30;2.45;;;8.00;99.90;;;;;;6241882;23;20005;-69
2024/01/23 04:05:29;;;;;;;7.43;1.77;;;8.00;99.90;;;;;;6241508;23;20008;-68
2024/01/23 04:08:15;;;;;;;5.25;1.73;;;8.00;99.90;;;;;;6240488;23;20035;-68
2024/01/23 04:11:01;;;;;;;3.85;1.83;;;8.00;99.90;;;;;;6239646;23;20022;-67
2024/01/23 04:13:47;;;;;;;4.65;2.00;;;8.00;99.90;;;;;;6240962;23;20097;-67
2024/01/23 04:16:33;;;;;;;3.50;1.98;;;7.90;99.90;;;;;;6241324;23;20012;-67
2024/01/23 04:19:19;;;;;;;5.70;2.13;;;7.90;99.90;;;;;;6241355;23;20424;-70
2024/01/23 04:22:05;;;;;;;4.63;2.40;;;7.90;99.90;;;;;;6239377;23;20377;-70
2024/01/23 04:24:51;;;;;;;3.75;2.15;;;7.90;99.90;;;;;;6242216;23;20226;-70
2024/01/23 04:27:37;;;;;;;5.57;1.70;;;7.90;99.90;;;;;;6241681;23;20015;-70
2024/01/23 04:30:25;;;;;;;4.05;1.90;;;7.90;99.90;;;;;;6242696;23;20383;-70
2024/01/23 04:33:10;;;;;;;5.88;1.92;;;7.90;99.90;;;;;;6242491;23;20440;-70
2024/01/23 04:35:56;;;;;;;6.60;1.63;;;7.80;99.90;;;;;;6242018;23;20042;-69
2024/01/23 04:38:43;;;;;;;3.72;1.88;;;7.80;99.90;;;;;;6242634;23;20040;-70
2024/01/23 04:41:30;;;;;;;4.63;1.80;;;7.80;99.90;;;;;;6242538;23;20019;-70
2024/01/23 04:44:16;;;;;;;6.57;2.17;;;7.80;99.90;;;;;;6243420;23;20000;-70
2024/01/23 04:47:02;;;;;;;5.85;2.20;;;7.80;99.90;;;;;;6243520;23;20445;-70
2024/01/23 04:49:48;;;;;;;9.52;2.70;;;7.80;99.90;;;;;;6221127;22;20016;-70
2024/01/23 04:52:34;;;;;;;5.75;2.47;;;7.90;99.90;;;;;;6241833;23;20012;-70
2024/01/23 04:55:20;;;;;;;4.97;2.67;;;7.90;99.90;;;;;;6243018;23;20023;-70
2024/01/23 04:58:06;;;;;;;4.50;1.80;;;7.90;99.90;;;;;;6241281;23;20004;-70
2024/01/23 05:00:52;;;;;;;5.10;2.30;;;7.90;99.90;;;;;;6244151;23;20081;-70
2024/01/23 05:03:38;;;;;;;7.05;2.22;;;7.90;99.90;;;;;;6243740;23;20082;-70
2024/01/23 05:06:24;;;;;;;6.45;2.22;;;7.90;99.90;;;;;;6268324;23;20000;-69
2024/01/23 05:09:10;;;;;;;7.32;2.65;;;7.90;99.90;;;;;;6267154;23;20066;-71
2024/01/23 05:11:56;;;;;;;2.88;1.50;;;7.90;99.90;;;;;;6251498;23;20322;-70
2024/01/23 05:14:42;;;;;;;5.68;1.95;;;7.90;99.90;;;;;;6248190;23;20058;-70
2024/01/23 05:17:27;;;;;;;5.45;1.60;;;7.90;99.90;;;;;;6241723;23;20008;-69
2024/01/23 05:20:14;;;;;;;7.32;1.80;;;8.00;99.90;;;;;;6240429;23;20019;-69
2024/01/23 05:23:01;;;;;;;6.53;2.38;;;8.00;99.90;;;;;;6241616;23;20187;-69
2024/01/23 05:25:47;;;;;;;6.90;2.40;;;8.00;99.90;;;;;;6242056;23;20008;-69
2024/01/23 05:28:33;;;;;;;3.17;1.70;;;8.00;99.90;;;;;;6242687;23;20008;-71
2024/01/23 05:31:19;;;;;;;4.32;2.13;;;8.00;99.90;;;;;;6241624;23;20016;-71
2024/01/23 05:34:05;;;;;;;3.58;1.80;;;8.00;99.90;;;;;;6241572;23;20095;-66
2024/01/23 05:36:52;;;;;;;6.05;1.40;;;8.00;99.90;;;;;;6240469;23;20019;-69
2024/01/23 05:39:39;;;;;;;5.57;2.17;;;8.00;99.90;;;;;;6241608;23;20004;-70
2024/01/23 05:42:25;;;;;;;6.10;2.38;;;8.00;99.90;;;;;;6242513;23;20285;-70
2024/01/23 05:45:11;;;;;;;3.88;2.20;;;8.00;99.90;;;;;;6241011;23;20008;-69
2024/01/23 05:47:57;;;;;;;5.10;1.80;;;7.90;99.90;;;;;;6242298;23;20008;-69
2024/01/23 05:50:43;;;;;;;3.80;1.90;;;7.90;99.90;;;;;;6242778;23;20020;-68
2024/01/23 05:53:29;;;;;;;3.03;1.60;;;7.80;99.90;;;;;;6241873;23;20048;-69
2024/01/23 05:56:15;;;;;;;3.97;2.10;;;7.80;99.90;;;;;;6243511;23;20446;-69
2024/01/23 05:59:01;;;;;;;7.13;1.73;;;7.80;99.90;;;;;;6241000;23;20012;-69
2024/01/23 06:01:47;;;;;;;4.53;1.67;;;7.80;99.90;;;;;;6240733;23;20479;-69
2024/01/23 06:04:33;;;;;;;3.50;1.70;;;7.80;99.90;;;;;;6241015;23;20040;-69
2024/01/23 06:07:19;;;;;;;5.45;2.38;;;7.80;99.90;;;;;;6241413;23;20354;-69
2024/01/23 06:10:05;;;;;;;8.90;2.33;;;7.70;99.90;;;;;;6240775;23;20016;-69
2024/01/23 06:12:51;;;;;;;4.53;2.00;;;7.70;99.90;;;;;;6241475;23;20008;-69
2024/01/23 06:15:37;;;;;;;7.00;2.30;;;7.70;99.90;;;;;;6242018;23;20433;-69
2024/01/23 06:18:23;;;;;;;3.88;1.98;;;7.70;99.90;;;;;;6241275;23;20008;-69
2024/01/23 06:21:09;;;;;;;5.55;1.80;;;7.70;99.90;;;;;;6240259;23;20040;-68
2024/01/23 06:23:55;;;;;;;7.38;2.15;;;7.70;99.90;;;;;;6241377;23;20047;-69
2024/01/23 06:26:41;;;;;;;4.95;1.60;;;7.70;99.90;;;;;;6241069;23;20455;-69
2024/01/23 06:29:26;;;;;;;9.30;2.47;;;7.70;99.90;;;;;;6242276;23;20004;-69
2024/01/23 06:32:12;;;;;;;10.05;2.40;;;7.70;99.90;;;;;;6239897;23;20011;-69
2024/01/23 06:34:58;;;;;;;3.95;2.28;;;7.70;99.90;;;;;;6240437;23;20020;-70
2024/01/23 06:37:44;;;;;;;8.52;2.58;;;7.70;99.90;;;;;;6241892;23;20147;-69
2024/01/23 06:40:30;;;;;;;3.88;2.20;;;7.70;99.90;;;;;;6240782;23;20337;-70
2024/01/23 06:43:16;;;;;;;6.60;2.30;;;7.80;99.90;;;;;;6242688;23;20053;-70
2024/01/23 06:46:02;;;;;;;7.72;2.08;;;7.80;99.90;;;;;;6241276;23;20074;-70
2024/01/23 06:48:48;;;;;;;4.15;2.15;;;7.80;99.90;;;;;;6240745;23;20008;-69
2024/01/23 06:51:36;;;;;;;6.97;2.55;;;7.90;99.90;;;;;;6239963;23;20030;-69
2024/01/23 06:54:22;;;;;;;6.28;2.75;;;7.90;99.90;;;;;;6220433;23;20027;-69
2024/01/23 06:57:08;;;;;;;6.40;2.78;;;7.90;99.90;;;;;;6243393;23;20008;-69
2024/01/23 06:59:54;;;;;;;6.78;2.03;;;7.90;99.90;;;;;;6240951;23;20004;-68
2024/01/23 07:02:39;;;;;;;7.50;2.70;;;7.90;99.90;;;;;;6240389;23;20020;-70
2024/01/23 07:05:25;;;;;;;8.50;2.65;;;8.00;99.90;;;;;;6240004;23;20102;-69
2024/01/23 07:08:12;;;;;;;6.60;2.78;;;8.00;99.90;;;;;;6240826;23;20012;-70
2024/01/23 07:10:57;;;;;;;7.60;2.75;;;8.00;99.90;;;;;;6241020;23;20008;-70
2024/01/23 07:13:43;;;;;;;10.40;2.60;;;8.00;99.90;;;;;;6240101;23;20016;-69
2024/01/23 07:16:29;;;;;;;8.90;2.80;;;8.10;99.90;;;;;;6239878;23;20062;-70
2024/01/23 07:19:15;;;;;;;7.50;2.72;;;8.10;99.90;;;;;;6240980;23;20004;-70
2024/01/23 07:22:01;;;;;;;7.95;2.90;;;8.10;99.90;;;;;;6240208;23;20044;-70
2024/01/23 07:24:47;;;;;;;11.50;3.55;;;8.20;99.90;;;;;;6241630;23;20013;-70
2024/01/23 07:27:33;;;;;;;10.73;2.67;;;8.20;99.90;;;;;;6239659;23;20463;-70
2024/01/23 07:30:19;;;;;;;11.70;3.63;;;8.20;99.90;;;;;;6237826;23;20008;-72
2024/01/23 07:33:05;;;;;;;11.20;2.83;;;8.20;99.90;;;;;;6238258;23;20019;-72
2024/01/23 07:35:51;;;;;;;10.13;2.85;;;8.30;99.90;;;;;;6240081;23;20020;-71
2024/01/23 07:38:37;;;;;;;7.50;2.40;;;8.30;99.90;;;;;;6241233;23;20004;-72
2024/01/23 07:41:23;;;;;;;6.38;2.72;;;8.40;99.90;;;;;;6239091;23;20116;-71
2024/01/23 07:44:09;;;;;;;8.90;2.85;;;8.40;99.90;;;;;;6240314;23;20333;-70
2024/01/23 07:46:55;;;;;;;9.30;2.55;;;8.40;99.90;;;;;;6239978;23;20074;-71
2024/01/23 07:49:41;;;;;;;12.43;4.18;;;8.40;99.90;;;;;;6240109;22;20020;-69
2024/01/23 07:52:31;;;;;;;14.68;3.97;;;8.50;99.90;;;;;;6237895;23;20008;-71
2024/01/23 07:55:17;;;;;;;9.63;2.83;;;8.50;99.90;;;;;;6239765;23;20051;-72
2024/01/23 07:58:03;;;;;;;11.60;2.92;;;8.60;99.90;;;;;;6240271;23;20031;-72
2024/01/23 08:00:49;;;;;;;8.15;3.53;;;8.60;99.90;;;;;;6241486;23;20016;-72
2024/01/23 08:03:35;;;;;;;10.00;3.00;;;8.60;99.90;;;;;;6238473;23;20066;-68
2024/01/23 08:06:20;;;;;;;7.82;3.08;;;8.60;99.90;;;;;;6242409;23;20047;-67
2024/01/23 08:09:07;;;;;;;8.57;2.83;;;8.60;99.90;;;;;;6239993;23;20008;-67
2024/01/23 08:11:53;;;;;;;8.68;2.58;;;8.70;99.90;;;;;;6241371;23;20008;-67
2024/01/23 08:14:39;;;;;;;8.25;3.55;;;8.70;99.80;;;;;;6241855;23;20154;-63
2024/01/23 08:17:24;;;;;;;5.80;2.92;;;8.70;99.70;;;;;;6254810;23;20008;-63
2024/01/23 08:20:11;;;;;;;9.18;2.58;;;8.70;99.70;;;;;;6236686;23;20016;-62
2024/01/23 08:22:57;;;;;;;9.55;3.58;;;8.70;99.60;;;;;;6245915;23;20008;-63
2024/01/23 08:25:45;;;;;;;8.45;2.30;;;8.70;99.60;;;;;;6220788;23;20019;-63
2024/01/23 08:28:31;;;;;;;13.02;3.28;;;8.70;99.60;;;;;;6241018;23;20468;-63
2024/01/23 08:31:17;;;;;;;8.57;3.15;;;8.80;99.60;;;;;;6240505;23;20345;-63
2024/01/23 08:34:04;;;;;;;8.25;3.45;;;8.80;99.70;;;;;;6239970;23;20087;-63
2024/01/23 08:36:50;;;;;;;14.05;4.53;;;8.80;99.50;;;;;;6239994;23;20031;-62
2024/01/23 08:39:35;;;;;;;11.57;3.28;;;8.80;99.50;;;;;;6239838;23;20008;-64
2024/01/23 08:42:22;;;;;;;8.48;2.53;;;8.90;99.40;;;;;;6240562;23;20016;-64
2024/01/23 08:45:08;;;;;;;8.07;3.10;;;8.90;99.40;;;;;;6240487;23;20020;-65
2024/01/23 08:47:54;;;;;;;11.68;3.22;;;8.90;99.40;;;;;;6242291;23;20012;-64
2024/01/23 08:50:40;;;;;;;10.20;3.28;;;8.90;99.30;;;;;;6239845;23;20059;-64
2024/01/23 08:53:26;;;;;;;11.10;2.88;;;8.90;99.20;;;;;;6240893;23;20337;-63
2024/01/23 08:56:12;;;;;;;9.63;3.03;;;9.00;99.20;;;;;;6239757;23;20349;-65
2024/01/23 08:58:58;;;;;;;9.13;3.47;;;9.00;99.20;;;;;;6241203;23;20004;-64
2024/01/23 09:01:44;;;;;;;13.55;3.67;;;9.00;99.20;;;;;;6239755;23;20452;-64
2024/01/23 09:04:30;;;;;;;8.98;2.58;;;9.10;99.10;;;;;;6240707;23;20166;-64
2024/01/23 09:07:17;;;;;;;14.55;3.22;;;9.10;99.10;;;;;;6241184;23;20011;-64
2024/01/23 09:10:03;;;;;;;9.00;3.45;;;9.10;99.00;;;;;;6241610;23;20507;-65
2024/01/23 09:12:49;;;;;;;9.93;2.97;;;9.10;98.90;;;;;;6240981;23;20456;-65
2024/01/23 09:15:38;;;;;;;10.63;3.60;;;9.20;99.00;;;;;;6221137;23;20457;-64
2024/01/23 09:18:24;;;;;;;10.32;2.80;;;9.20;98.90;;;;;;6221200;23;20066;-64
2024/01/23 09:21:10;;;;;;;15.45;5.15;;;9.30;98.90;;;;;;6241551;23;20016;-64
2024/01/23 09:23:56;;;;;;;9.65;3.13;;;9.30;98.80;;;;;;6241240;23;20004;-64
2024/01/23 09:26:42;;;;;;;9.27;3.20;;;9.40;98.70;;;;;;6242100;23;20090;-64
2024/01/23 09:29:28;;;;;;;7.65;3.00;;;9.40;98.70;;;;;;6241808;23;20012;-64
2024/01/23 09:32:14;;;;;;;11.55;3.95;;;9.40;98.60;;;;;;6242266;23;20018;-64
2024/01/23 09:35:00;;;;;;;12.57;3.88;;;9.40;98.50;;;;;;6241408;23;20288;-64
2024/01/23 09:37:49;;;;;;;7.35;3.15;;;9.40;98.40;;;;;;6242170;23;20012;-65
2024/01/23 09:40:35;;;;;;;9.60;3.92;;;9.50;98.40;;;;;;6240386;23;20464;-65
2024/01/23 09:43:21;;;;;;;11.00;3.20;;;9.50;98.30;;;;;;6241842;23;20008;-64
2024/01/23 09:46:12;;;;;;;10.65;3.17;;;9.50;98.20;;;;;;6241593;23;20018;-65
2024/01/23 09:48:58;;;;;;;6.22;2.50;;;9.50;98.30;;;;;;6243412;23;20004;-65
2024/01/23 09:51:47;;;;;;;9.02;3.03;;;9.50;98.20;;;;;;6242778;23;20028;-65
2024/01/23 09:54:33;;;;;;;12.13;3.67;;;9.50;98.20;;;;;;6243100;23;20020;-64
2024/01/23 09:57:19;;;;;;;9.05;3.55;;;9.60;98.20;;;;;;6241456;23;20324;-64
2024/01/23 10:00:07;;;;;;;9.63;3.65;;;9.60;98.20;;;;;;6241575;23;20094;-64
2024/01/23 10:02:53;;;;;;;7.93;3.45;;;9.60;98.10;;;;;;6241959;23;20020;-64
2024/01/23 10:05:39;;;;;;;8.73;3.17;;;9.60;98.00;;;;;;6240597;23;20341;-65
2024/01/23 10:08:25;;;;;;;9.40;3.63;;;9.60;97.90;;;;;;6242268;23;20012;-64
2024/01/23 10:11:11;;;;;;;9.32;3.75;;;9.60;98.00;;;;;;6242538;23;20015;-65
2024/01/23 10:14:04;;;;;;;10.82;3.35;;;9.60;97.90;;;;;;6241000;23;20111;-64
2024/01/23 10:16:50;;;;;;;7.05;4.20;;;9.60;97.90;;;;;;6242639;23;20095;-65
2024/01/23 10:19:37;;;;;;;12.35;4.15;;;9.60;98.00;;;;;;6239278;23;20484;-64
2024/01/23 10:22:23;;;;;;;11.30;3.30;;;9.70;98.00;;;;;;6240288;23;20008;-64
2024/01/23 10:25:20;;;;;;;8.45;2.78;;;9.60;97.90;;;;;;6240627;23;20019;-65
2024/01/23 10:28:10;;;;;;;11.05;3.92;;;9.70;97.90;;;;;;6243197;23;20421;-65
2024/01/23 10:30:56;;;;;;;7.05;2.28;;;9.70;97.90;;;;;;6241917;23;20008;-64
2024/01/23 10:33:42;;;;;;;9.43;3.30;;;9.70;97.90;;;;;;6241581;23;20381;-64
2024/01/23 10:36:28;;;;;;;10.32;2.92;;;9.70;97.90;;;;;;6241550;23;20384;-64
2024/01/23 10:39:15;;;;;;;11.35;3.80;;;9.70;97.80;;;;;;6241303;23;20074;-64
2024/01/23 10:42:01;;;;;;;9.45;3.53;;;9.70;97.80;;;;;;6242553;23;20095;-64
2024/01/23 10:44:49;;;;;;;12.63;3.55;;;9.70;97.70;;;;;;6240325;23;20408;-65
2024/01/23 10:47:35;;;;;;;12.88;3.92;;;9.70;97.70;;;;;;6241758;23;20043;-64
2024/01/23 10:50:21;;;;;;;14.75;3.72;;;9.80;97.80;;;;;;6242159;23;20028;-64
2024/01/23 10:53:14;;;;;;;11.73;3.45;;;9.80;97.70;;;;;;6240876;23;20018;-64
2024/01/23 10:56:01;;;;;;;11.52;3.53;;;9.80;97.60;;;;;;6241302;23;20020;-65
2024/01/23 10:59:00;;;;;;;11.27;3.33;;;9.80;97.70;;;;;;6241209;23;20030;-65
2024/01/23 11:01:48;;;;;;;14.30;4.05;;;9.80;97.60;;;;;;6240497;23;20058;-65
2024/01/23 11:04:34;;;;;;;12.77;3.47;;;9.80;97.70;;;;;;6242328;23;20008;-64
2024/01/23 11:08:09;;;;;;;8.35;2.97;;;9.90;97.70;;;;;;6239553;23;20012;-65
2024/01/23 11:11:20;;;;;;;10.20;3.50;;;9.90;97.60;;;;;;6220599;23;20011;-64
2024/01/23 11:14:35;;;;;;;11.68;3.67;;;9.80;97.60;;;;;;6242707;23;20357;-65
2024/01/23 11:17:21;;;;;;;10.27;4.20;;;9.80;97.70;;;;;;6241086;23;20051;-65
2024/01/23 11:20:13;;;;;;;11.60;3.80;;;9.80;97.70;;;;;;6240738;23;20012;-65
2024/01/23 11:23:13;;;;;;;11.93;3.95;;;9.90;97.70;;;;;;6242563;23;20311;-65
2024/01/23 11:26:14;;;;;;;8.82;3.25;;;9.90;97.60;;;;;;6240867;23;20037;-64
2024/01/23 11:29:05;;;;;;;11.77;2.97;;;9.80;97.60;;;;;;6240471;23;20416;-65
2024/01/23 11:31:51;;;;;;;15.57;4.20;;;9.90;97.70;;;;;;6242288;23;20083;-66
2024/01/23 11:34:39;;;;;;;12.55;3.20;;;9.90;97.70;;;;;;6262062;23;20020;-66
2024/01/23 11:37:50;;;;;;;8.57;2.58;;;9.90;97.60;;;;;;6254840;23;20087;-65
2024/01/23 11:40:38;;;;;;;14.23;4.10;;;9.90;97.50;;;;;;6242555;23;20433;-65
2024/01/23 11:43:24;;;;;;;13.52;3.58;;;10.00;97.60;;;;;;6240285;23;20006;-64
2024/01/23 11:46:14;;;;;;;12.25;3.78;;;10.00;97.60;;;;;;6241702;23;20317;-64
2024/01/23 11:49:00;;;;;;;12.13;3.25;;;10.00;97.60;;;;;;6241581;23;20336;-65
2024/01/23 11:51:48;;;;;;;11.68;3.95;;;10.10;97.60;;;;;;6240876;23;20073;-64
2024/01/23 11:54:34;;;;;;;15.25;3.58;;;10.10;97.60;;;;;;6242027;23;20004;-64
2024/01/23 11:57:20;;;;;;;11.20;4.15;;;10.10;97.50;;;;;;6240130;23;20065;-64
2024/01/23 12:00:08;;;;;;;18.55;4.88;;;10.10;97.50;;;;;;6239423;23;20012;-65
2024/01/23 12:02:54;;;;;;;13.25;3.22;;;10.20;97.50;;;;;;6239302;23;20369;-64
2024/01/23 12:05:40;;;;;;;10.20;3.13;;;10.20;97.50;;;;;;6240657;23;20004;-64
2024/01/23 12:08:26;;;;;;;11.18;3.90;;;10.20;97.40;;;;;;6240145;23;20075;-64
2024/01/23 12:11:17;;;;;;;13.70;4.10;;;10.20;97.30;;;;;;6240743;23;20004;-64
2024/01/23 12:14:03;;;;;;;11.40;3.95;;;10.20;97.20;;;;;;6239832;23;20018;-64
2024/01/23 12:17:02;;;;;;;9.85;4.15;;;10.20;97.20;;;;;;6240509;23;20156;-64
2024/01/23 12:19:48;;;;;;;12.20;3.92;;;10.20;97.20;;;;;;6241768;23;20087;-64
2024/01/23 12:22:34;;;;;;;13.95;4.40;;;10.20;97.30;;;;;;6241456;23;20039;-64
2024/01/23 12:25:20;;;;;;;11.63;3.92;;;10.20;97.20;;;;;;6239754;23;20464;-65
2024/01/23 12:28:06;;;;;;;15.05;4.72;;;10.20;97.10;;;;;;6239121;23;20016;-64
2024/01/23 12:30:53;;;;;;;10.93;3.70;;;10.20;97.10;;;;;;6240489;23;20008;-68
2024/01/23 12:33:39;;;;;;;11.57;3.75;;;10.20;97.10;;;;;;6234070;23;20013;-68
2024/01/23 12:36:24;;;;;;;8.63;2.83;;;10.20;97.00;;;;;;6240034;23;20026;-69
2024/01/23 12:39:11;;;;;;;14.50;3.97;;;10.20;96.90;;;;;;6240032;23;20377;-68
2024/01/23 12:41:58;;;;;;;10.52;4.03;;;10.30;96.70;;;;;;6237880;23;20015;-67
2024/01/23 12:44:44;;;;;;;10.00;3.80;;;10.30;96.80;;;;;;6239282;23;20009;-68
2024/01/23 12:47:30;;;;;;;10.98;3.55;;;10.30;96.60;;;;;;6218545;23;20433;-68
2024/01/23 12:50:25;;;;;;;8.23;3.63;;;10.30;96.50;;;;;;6241799;23;20515;-67
2024/01/23 12:53:11;;;;;;;11.40;3.58;;;10.30;96.50;;;;;;6242877;23;20023;-68
2024/01/23 12:55:57;;;;;;;11.85;3.88;;;10.40;96.60;;;;;;6241844;23;20079;-68
2024/01/23 12:58:44;;;;;;;14.98;3.92;;;10.40;96.50;;;;;;6241946;23;20087;-68
2024/01/23 13:01:30;;;;;;;11.10;4.00;;;10.40;96.50;;;;;;6241738;23;20396;-68
2024/01/23 13:04:15;;;;;;;13.13;4.43;;;10.40;96.40;;;;;;6241989;23;20012;-68
2024/01/23 13:07:02;;;;;;;12.63;5.03;;;10.50;96.30;;;;;;6242142;23;20345;-68
2024/01/23 13:09:48;;;;;;;12.02;3.85;;;10.40;96.20;;;;;;6243813;23;20008;-68
2024/01/23 13:12:35;;;;;;;21.25;6.10;;;10.50;96.10;;;;;;6241645;23;20224;-64
2024/01/23 13:15:21;;;;;;;8.20;3.08;;;10.50;96.10;;;;;;6244131;23;20020;-64
2024/01/23 13:18:07;;;;;;;18.30;4.15;;;10.50;96.00;;;;;;6241915;23;20012;-64
2024/01/23 13:20:52;;;;;;;9.57;3.90;;;10.50;95.90;;;;;;6243752;23;20023;-63
2024/01/23 13:23:38;;;;;;;12.00;3.97;;;10.50;95.90;;;;;;6241637;23;20456;-64
2024/01/23 13:26:24;;;;;;;12.30;3.90;;;10.50;95.80;;;;;;6241384;23;20031;-63
2024/01/23 13:29:10;;;;;;;17.40;4.72;;;10.50;95.80;;;;;;6241163;23;20412;-63
2024/01/23 13:31:56;;;;;;;12.52;4.53;;;10.50;95.70;;;;;;6240095;23;20143;-63
2024/01/23 13:34:42;;;;;;;14.75;3.63;;;10.50;95.70;;;;;;6241007;23;20022;-63
2024/01/23 13:37:29;;;;;;;12.27;4.43;;;10.50;95.70;;;;;;6240232;23;20074;-63
2024/01/23 13:40:16;;;;;;;14.38;4.22;;;10.50;95.60;;;;;;6241525;23;20016;-63
2024/01/23 13:43:02;;;;;;;11.15;4.32;;;10.60;95.50;;;;;;6241298;23;20069;-63
2024/01/23 13:45:48;;;;;;;15.88;4.55;;;10.60;95.40;;;;;;6243844;23;20074;-63
2024/01/23 13:48:34;;;;;;;12.35;4.65;;;10.50;95.40;;;;;;6239749;23;20052;-63
2024/01/23 13:51:20;;;;;;;10.50;3.85;;;10.60;95.40;;;;;;6241346;23;20562;-63
2024/01/23 13:54:06;;;;;;;12.15;3.63;;;10.60;95.40;;;;;;6241874;23;20069;-63
2024/01/23 13:56:53;;;;;;;10.63;3.58;;;10.60;95.40;;;;;;6242427;23;20078;-68
2024/01/23 13:59:39;;;;;;;9.55;3.65;;;10.60;95.40;;;;;;6241400;23;20131;-67
2024/01/23 14:02:24;;;;;;;16.65;4.45;;;10.50;95.40;;;;;;6241051;23;20336;-67
2024/01/23 14:05:12;;;;;;;12.05;4.28;;;10.50;95.40;;;;;;6240241;23;20348;-67
2024/01/23 14:07:59;;;;;;;11.00;3.85;;;10.50;95.40;;;;;;6241206;23;20015;-63
2024/01/23 14:10:45;;;;;;;13.35;4.28;;;10.50;95.40;;;;;;6242841;23;20015;-63
2024/01/23 14:13:31;;;;;;;13.50;4.15;;;10.50;95.30;;;;;;6242867;23;20227;-63
2024/01/23 14:16:17;;;;;;;11.80;4.35;;;10.50;95.20;;;;;;6241180;23;20027;-63
2024/01/23 14:19:04;;;;;;;14.45;4.05;;;10.50;95.20;;;;;;6239707;23;20016;-63
2024/01/23 14:21:50;;;;;;;15.48;4.25;;;10.50;95.10;;;;;;6241053;23;20012;-63
2024/01/23 14:24:37;;;;;;;15.65;4.45;;;10.50;95.10;;;;;;6243227;23;20095;-63
2024/01/23 14:27:22;;;;;;;14.18;3.95;;;10.50;95.10;;;;;;6241110;23;20019;-63
2024/01/23 14:30:12;;;;;;;18.15;5.00;;;10.40;95.00;;;;;;6240418;23;20407;-63
2024/01/23 14:32:58;;;;;;;10.70;3.63;;;10.40;94.90;;;;;;6242990;23;20445;-63